EFET

Details ICAO EFET (ENF)
Name Enontekio
Region Finland
Timezone Europe/Helsinki (UTC+2.0)
Plans Departing 10
Arriving 11
Stats Elevation 1,005 ft / 306 m (AMSL)
Location 68.362586° 23.424328°
Runways 1
Magnetic Variation 10.906° E
Sunrise Unknown / Unknown
Sunset Unknown / Unknown
Advertisement - Login to hide

Runways

ID Width Length Bearing (true) Bearing (mag) Surface Threshold Offset Overrun Length
03 148 ft / 45 m 6,544 ft / 1,995 m 34.65° 23.74° Asphalt 0 ft / 0 m 0 ft / 0 m
21 148 ft / 45 m 6,544 ft / 1,995 m 214.68° 203.77° Asphalt 0 ft / 0 m 0 ft / 0 m

Approach Navaids

Runway Type Ident Frequency Range Bearing (true) Bearing (mag) Slope Elevation
21 Localiser ET 111.30 MHz 18 nm / 33 km 214.64° 203.74° - 1,005 ft / 306 m (AMSL)
21 Glidescope ET 111.30 MHz 10 nm / 19 km 214.66° 203.76° 3.50° 1,005 ft / 306 m (AMSL)
21 DME ET 111.30 MHz 18 nm / 33 km - - - 1,005 ft / 306 m (AMSL)

Map

Weather


0- 5 10 15 20 25 30 35+ Temperature / ° C

Clouds and Precipitation
Forecast for 2017-12-13 06:00 UTC. Updated 43 minutes ago

Ground ~20,000 ft ~40,000 ft Winds

METAR

EFET 130550Z AUTO 36014KT 2700 -SN FEW014 OVC025 M06/M08 Q0977

TAF

Not found

Frequencies

Recorded 134.82 MHz ATIS
Tower 119.70 MHz AFIS
Tower 122.45 MHz AFIS
Warning: Do not use this data for real-world aviation or navigation. No guarantee of current accuracy is given.